sensor_id;sensor_type;location;lat;lon;timestamp;P1;durP1;ratioP1;P2;durP2;ratioP2
14060;SDS011;7105;43.616;1.434;2023-07-13T00:00:33;4.78;;;2.60;;
14060;SDS011;7105;43.616;1.434;2023-07-13T00:03:03;5.65;;;3.08;;
14060;SDS011;7105;43.616;1.434;2023-07-13T00:05:29;4.75;;;2.90;;
14060;SDS011;7105;43.616;1.434;2023-07-13T00:07:55;4.53;;;2.60;;
14060;SDS011;7105;43.616;1.434;2023-07-13T00:10:21;4.03;;;2.75;;
14060;SDS011;7105;43.616;1.434;2023-07-13T00:12:47;6.00;;;2.92;;
14060;SDS011;7105;43.616;1.434;2023-07-13T00:15:16;5.65;;;2.78;;
14060;SDS011;7105;43.616;1.434;2023-07-13T00:17:51;2.80;;;2.50;;
14060;SDS011;7105;43.616;1.434;2023-07-13T00:20:20;4.15;;;2.63;;
14060;SDS011;7105;43.616;1.434;2023-07-13T00:22:48;3.78;;;2.53;;
14060;SDS011;7105;43.616;1.434;2023-07-13T00:25:14;4.85;;;2.70;;
14060;SDS011;7105;43.616;1.434;2023-07-13T00:27:41;3.13;;;2.60;;
14060;SDS011;7105;43.616;1.434;2023-07-13T00:30:08;3.03;;;2.60;;
14060;SDS011;7105;43.616;1.434;2023-07-13T00:32:35;4.50;;;2.13;;
14060;SDS011;7105;43.616;1.434;2023-07-13T00:35:01;2.83;;;2.40;;
14060;SDS011;7105;43.616;1.434;2023-07-13T00:37:28;4.20;;;2.60;;
14060;SDS011;7105;43.616;1.434;2023-07-13T00:39:54;3.78;;;2.40;;
14060;SDS011;7105;43.616;1.434;2023-07-13T00:42:19;5.13;;;2.30;;
14060;SDS011;7105;43.616;1.434;2023-07-13T00:45:07;3.28;;;2.70;;
14060;SDS011;7105;43.616;1.434;2023-07-13T00:47:37;3.70;;;2.58;;
14060;SDS011;7105;43.616;1.434;2023-07-13T00:50:07;2.97;;;2.22;;
14060;SDS011;7105;43.616;1.434;2023-07-13T00:52:35;3.55;;;2.35;;
14060;SDS011;7105;43.616;1.434;2023-07-13T00:55:03;3.95;;;2.63;;
14060;SDS011;7105;43.616;1.434;2023-07-13T00:57:31;2.47;;;2.28;;
14060;SDS011;7105;43.616;1.434;2023-07-13T00:59:57;2.50;;;2.22;;
14060;SDS011;7105;43.616;1.434;2023-07-13T01:02:25;3.00;;;2.28;;
14060;SDS011;7105;43.616;1.434;2023-07-13T01:04:52;3.25;;;2.10;;
14060;SDS011;7105;43.616;1.434;2023-07-13T01:07:18;4.38;;;2.50;;
14060;SDS011;7105;43.616;1.434;2023-07-13T01:09:44;4.05;;;2.20;;
14060;SDS011;7105;43.616;1.434;2023-07-13T01:12:10;3.78;;;2.40;;
14060;SDS011;7105;43.616;1.434;2023-07-13T01:14:36;5.18;;;2.72;;
14060;SDS011;7105;43.616;1.434;2023-07-13T01:17:02;4.78;;;2.28;;
14060;SDS011;7105;43.616;1.434;2023-07-13T01:22:03;5.55;;;2.65;;
14060;SDS011;7105;43.616;1.434;2023-07-13T01:24:34;5.35;;;2.58;;
14060;SDS011;7105;43.616;1.434;2023-07-13T01:27:01;5.70;;;2.60;;
14060;SDS011;7105;43.616;1.434;2023-07-13T01:29:28;4.10;;;2.42;;
14060;SDS011;7105;43.616;1.434;2023-07-13T01:31:53;2.85;;;2.35;;
14060;SDS011;7105;43.616;1.434;2023-07-13T01:34:19;2.78;;;2.22;;
14060;SDS011;7105;43.616;1.434;2023-07-13T01:36:44;3.78;;;2.65;;
14060;SDS011;7105;43.616;1.434;2023-07-13T01:39:10;4.03;;;2.40;;
14060;SDS011;7105;43.616;1.434;2023-07-13T01:41:36;3.65;;;2.58;;
14060;SDS011;7105;43.616;1.434;2023-07-13T01:44:02;4.65;;;2.75;;
14060;SDS011;7105;43.616;1.434;2023-07-13T01:46:27;3.75;;;2.40;;
14060;SDS011;7105;43.616;1.434;2023-07-13T01:48:53;3.47;;;2.58;;
14060;SDS011;7105;43.616;1.434;2023-07-13T01:51:19;3.67;;;2.42;;
14060;SDS011;7105;43.616;1.434;2023-07-13T01:53:45;4.93;;;2.50;;
14060;SDS011;7105;43.616;1.434;2023-07-13T01:56:11;4.93;;;2.45;;
14060;SDS011;7105;43.616;1.434;2023-07-13T01:58:37;5.20;;;2.60;;
14060;SDS011;7105;43.616;1.434;2023-07-13T02:01:02;5.13;;;2.60;;
14060;SDS011;7105;43.616;1.434;2023-07-13T02:03:28;6.03;;;2.80;;
14060;SDS011;7105;43.616;1.434;2023-07-13T02:05:54;4.82;;;2.58;;
14060;SDS011;7105;43.616;1.434;2023-07-13T02:08:19;3.13;;;2.40;;
14060;SDS011;7105;43.616;1.434;2023-07-13T02:10:45;4.95;;;2.20;;
14060;SDS011;7105;43.616;1.434;2023-07-13T02:13:11;3.90;;;2.42;;
14060;SDS011;7105;43.616;1.434;2023-07-13T02:15:39;6.43;;;2.75;;
14060;SDS011;7105;43.616;1.434;2023-07-13T02:18:05;3.75;;;2.30;;
14060;SDS011;7105;43.616;1.434;2023-07-13T02:20:31;6.35;;;2.70;;
14060;SDS011;7105;43.616;1.434;2023-07-13T02:22:57;4.18;;;2.35;;
14060;SDS011;7105;43.616;1.434;2023-07-13T02:25:23;4.28;;;2.78;;
14060;SDS011;7105;43.616;1.434;2023-07-13T02:27:50;5.68;;;2.90;;
14060;SDS011;7105;43.616;1.434;2023-07-13T02:30:15;5.13;;;3.00;;
14060;SDS011;7105;43.616;1.434;2023-07-13T02:32:41;6.95;;;2.90;;
14060;SDS011;7105;43.616;1.434;2023-07-13T02:35:08;6.10;;;2.40;;
14060;SDS011;7105;43.616;1.434;2023-07-13T02:37:34;4.05;;;2.40;;
14060;SDS011;7105;43.616;1.434;2023-07-13T02:40:00;4.55;;;2.72;;
14060;SDS011;7105;43.616;1.434;2023-07-13T02:42:25;5.43;;;2.60;;
14060;SDS011;7105;43.616;1.434;2023-07-13T02:44:51;11.02;;;3.17;;
14060;SDS011;7105;43.616;1.434;2023-07-13T02:47:16;5.10;;;2.35;;
14060;SDS011;7105;43.616;1.434;2023-07-13T02:49:42;4.22;;;2.70;;
14060;SDS011;7105;43.616;1.434;2023-07-13T02:52:09;3.70;;;2.25;;
14060;SDS011;7105;43.616;1.434;2023-07-13T02:54:34;4.47;;;2.25;;
14060;SDS011;7105;43.616;1.434;2023-07-13T02:57:00;6.80;;;2.47;;
14060;SDS011;7105;43.616;1.434;2023-07-13T02:59:26;5.30;;;2.60;;
14060;SDS011;7105;43.616;1.434;2023-07-13T03:01:52;4.43;;;2.58;;
14060;SDS011;7105;43.616;1.434;2023-07-13T03:04:17;5.35;;;2.40;;
14060;SDS011;7105;43.616;1.434;2023-07-13T03:06:44;4.60;;;2.40;;
14060;SDS011;7105;43.616;1.434;2023-07-13T03:09:10;6.05;;;2.42;;
14060;SDS011;7105;43.616;1.434;2023-07-13T03:11:37;7.85;;;2.30;;
14060;SDS011;7105;43.616;1.434;2023-07-13T03:14:03;5.45;;;2.22;;
14060;SDS011;7105;43.616;1.434;2023-07-13T03:16:29;5.00;;;2.05;;
14060;SDS011;7105;43.616;1.434;2023-07-13T03:18:55;4.97;;;2.10;;
14060;SDS011;7105;43.616;1.434;2023-07-13T03:21:20;5.25;;;2.05;;
14060;SDS011;7105;43.616;1.434;2023-07-13T03:23:46;4.30;;;2.00;;
14060;SDS011;7105;43.616;1.434;2023-07-13T03:26:14;5.88;;;2.33;;
14060;SDS011;7105;43.616;1.434;2023-07-13T03:28:41;4.03;;;1.90;;
14060;SDS011;7105;43.616;1.434;2023-07-13T03:31:08;6.72;;;2.40;;
14060;SDS011;7105;43.616;1.434;2023-07-13T03:33:36;2.80;;;2.00;;
14060;SDS011;7105;43.616;1.434;2023-07-13T03:36:03;6.97;;;2.50;;
14060;SDS011;7105;43.616;1.434;2023-07-13T03:38:31;3.03;;;1.80;;
14060;SDS011;7105;43.616;1.434;2023-07-13T03:40:57;5.47;;;2.10;;
14060;SDS011;7105;43.616;1.434;2023-07-13T03:43:23;4.85;;;2.50;;
14060;SDS011;7105;43.616;1.434;2023-07-13T03:45:48;4.45;;;2.58;;
14060;SDS011;7105;43.616;1.434;2023-07-13T03:48:14;6.93;;;2.10;;
14060;SDS011;7105;43.616;1.434;2023-07-13T03:50:40;3.60;;;2.35;;
14060;SDS011;7105;43.616;1.434;2023-07-13T03:53:06;5.45;;;2.30;;
14060;SDS011;7105;43.616;1.434;2023-07-13T03:55:32;7.18;;;2.40;;
14060;SDS011;7105;43.616;1.434;2023-07-13T03:57:59;4.75;;;2.45;;
14060;SDS011;7105;43.616;1.434;2023-07-13T04:00:45;5.05;;;2.55;;
14060;SDS011;7105;43.616;1.434;2023-07-13T04:03:11;5.97;;;2.90;;
14060;SDS011;7105;43.616;1.434;2023-07-13T04:05:36;8.50;;;2.92;;
14060;SDS011;7105;43.616;1.434;2023-07-13T04:08:05;4.40;;;2.40;;
14060;SDS011;7105;43.616;1.434;2023-07-13T04:10:31;4.88;;;2.20;;
14060;SDS011;7105;43.616;1.434;2023-07-13T04:12:56;5.35;;;2.20;;
14060;SDS011;7105;43.616;1.434;2023-07-13T04:15:22;4.78;;;2.22;;
14060;SDS011;7105;43.616;1.434;2023-07-13T04:17:48;5.93;;;2.47;;
14060;SDS011;7105;43.616;1.434;2023-07-13T04:20:13;4.47;;;2.15;;
14060;SDS011;7105;43.616;1.434;2023-07-13T04:22:39;9.05;;;2.47;;
14060;SDS011;7105;43.616;1.434;2023-07-13T04:25:05;5.78;;;2.22;;
14060;SDS011;7105;43.616;1.434;2023-07-13T04:27:31;5.25;;;2.17;;
14060;SDS011;7105;43.616;1.434;2023-07-13T04:29:57;5.78;;;2.55;;
14060;SDS011;7105;43.616;1.434;2023-07-13T04:32:22;7.43;;;2.30;;
14060;SDS011;7105;43.616;1.434;2023-07-13T04:34:48;3.40;;;2.15;;
14060;SDS011;7105;43.616;1.434;2023-07-13T04:37:20;7.20;;;2.40;;
14060;SDS011;7105;43.616;1.434;2023-07-13T04:39:45;9.10;;;2.72;;
14060;SDS011;7105;43.616;1.434;2023-07-13T04:42:11;5.15;;;2.80;;
14060;SDS011;7105;43.616;1.434;2023-07-13T04:44:37;6.75;;;2.40;;
14060;SDS011;7105;43.616;1.434;2023-07-13T04:47:03;4.93;;;2.10;;
14060;SDS011;7105;43.616;1.434;2023-07-13T04:49:29;4.13;;;2.25;;
14060;SDS011;7105;43.616;1.434;2023-07-13T04:51:55;6.15;;;2.25;;
14060;SDS011;7105;43.616;1.434;2023-07-13T04:54:21;4.32;;;2.00;;
14060;SDS011;7105;43.616;1.434;2023-07-13T04:56:47;5.53;;;2.05;;
14060;SDS011;7105;43.616;1.434;2023-07-13T04:59:13;5.70;;;2.28;;
14060;SDS011;7105;43.616;1.434;2023-07-13T05:01:38;7.13;;;2.50;;
14060;SDS011;7105;43.616;1.434;2023-07-13T05:04:05;3.53;;;1.77;;
14060;SDS011;7105;43.616;1.434;2023-07-13T05:06:31;6.18;;;2.38;;
14060;SDS011;7105;43.616;1.434;2023-07-13T05:08:57;5.10;;;2.10;;
14060;SDS011;7105;43.616;1.434;2023-07-13T05:11:23;5.95;;;2.00;;
14060;SDS011;7105;43.616;1.434;2023-07-13T05:13:49;2.85;;;1.92;;
14060;SDS011;7105;43.616;1.434;2023-07-13T05:16:14;5.47;;;2.13;;
14060;SDS011;7105;43.616;1.434;2023-07-13T05:18:40;5.07;;;2.08;;
14060;SDS011;7105;43.616;1.434;2023-07-13T05:21:07;6.25;;;2.10;;
14060;SDS011;7105;43.616;1.434;2023-07-13T05:23:34;4.32;;;2.10;;
14060;SDS011;7105;43.616;1.434;2023-07-13T05:26:01;5.57;;;1.88;;
14060;SDS011;7105;43.616;1.434;2023-07-13T05:28:28;2.90;;;1.60;;
14060;SDS011;7105;43.616;1.434;2023-07-13T05:30:55;2.83;;;1.70;;
14060;SDS011;7105;43.616;1.434;2023-07-13T05:33:21;5.63;;;2.35;;
14060;SDS011;7105;43.616;1.434;2023-07-13T05:35:47;6.88;;;1.83;;
14060;SDS011;7105;43.616;1.434;2023-07-13T05:38:12;3.38;;;2.05;;
14060;SDS011;7105;43.616;1.434;2023-07-13T05:40:38;2.60;;;1.65;;
14060;SDS011;7105;43.616;1.434;2023-07-13T05:43:04;3.13;;;1.50;;
14060;SDS011;7105;43.616;1.434;2023-07-13T05:45:30;2.92;;;1.70;;
14060;SDS011;7105;43.616;1.434;2023-07-13T05:47:55;8.13;;;2.35;;
14060;SDS011;7105;43.616;1.434;2023-07-13T05:50:21;4.32;;;1.60;;
14060;SDS011;7105;43.616;1.434;2023-07-13T05:52:47;6.38;;;1.67;;
14060;SDS011;7105;43.616;1.434;2023-07-13T05:55:12;4.43;;;1.70;;
14060;SDS011;7105;43.616;1.434;2023-07-13T05:57:38;5.18;;;1.92;;
14060;SDS011;7105;43.616;1.434;2023-07-13T06:00:04;5.68;;;1.65;;
14060;SDS011;7105;43.616;1.434;2023-07-13T06:02:30;4.38;;;1.50;;
14060;SDS011;7105;43.616;1.434;2023-07-13T06:04:56;5.00;;;1.55;;
14060;SDS011;7105;43.616;1.434;2023-07-13T06:07:22;3.58;;;1.50;;
14060;SDS011;7105;43.616;1.434;2023-07-13T06:09:47;4.60;;;1.63;;
14060;SDS011;7105;43.616;1.434;2023-07-13T06:12:13;4.32;;;1.40;;
14060;SDS011;7105;43.616;1.434;2023-07-13T06:14:38;4.95;;;1.55;;
14060;SDS011;7105;43.616;1.434;2023-07-13T06:17:04;4.88;;;1.95;;
14060;SDS011;7105;43.616;1.434;2023-07-13T06:19:31;7.20;;;1.73;;
14060;SDS011;7105;43.616;1.434;2023-07-13T06:21:57;3.30;;;1.58;;
14060;SDS011;7105;43.616;1.434;2023-07-13T06:24:24;4.55;;;1.30;;
14060;SDS011;7105;43.616;1.434;2023-07-13T06:26:49;5.50;;;1.48;;
14060;SDS011;7105;43.616;1.434;2023-07-13T06:29:15;5.32;;;1.63;;
14060;SDS011;7105;43.616;1.434;2023-07-13T06:31:41;7.20;;;2.10;;
14060;SDS011;7105;43.616;1.434;2023-07-13T06:34:07;5.10;;;1.70;;
14060;SDS011;7105;43.616;1.434;2023-07-13T06:36:33;5.15;;;1.63;;
14060;SDS011;7105;43.616;1.434;2023-07-13T06:38:59;3.75;;;1.58;;
14060;SDS011;7105;43.616;1.434;2023-07-13T06:41:24;4.72;;;1.60;;
14060;SDS011;7105;43.616;1.434;2023-07-13T06:43:51;5.40;;;1.73;;
14060;SDS011;7105;43.616;1.434;2023-07-13T06:46:18;6.40;;;1.52;;
14060;SDS011;7105;43.616;1.434;2023-07-13T06:48:45;5.75;;;1.73;;
14060;SDS011;7105;43.616;1.434;2023-07-13T06:51:11;3.90;;;1.50;;
14060;SDS011;7105;43.616;1.434;2023-07-13T06:53:37;4.55;;;1.45;;
14060;SDS011;7105;43.616;1.434;2023-07-13T06:56:04;4.53;;;1.95;;
14060;SDS011;7105;43.616;1.434;2023-07-13T06:58:30;6.38;;;1.48;;
14060;SDS011;7105;43.616;1.434;2023-07-13T07:00:56;5.07;;;1.48;;
14060;SDS011;7105;43.616;1.434;2023-07-13T07:03:21;7.00;;;1.55;;
14060;SDS011;7105;43.616;1.434;2023-07-13T07:05:47;4.25;;;1.25;;
14060;SDS011;7105;43.616;1.434;2023-07-13T07:08:13;5.20;;;1.55;;
14060;SDS011;7105;43.616;1.434;2023-07-13T07:10:40;6.03;;;1.58;;
14060;SDS011;7105;43.616;1.434;2023-07-13T07:13:05;3.38;;;1.52;;
14060;SDS011;7105;43.616;1.434;2023-07-13T07:15:31;6.25;;;1.60;;
14060;SDS011;7105;43.616;1.434;2023-07-13T07:17:58;6.25;;;1.65;;
14060;SDS011;7105;43.616;1.434;2023-07-13T07:20:24;4.80;;;1.80;;
14060;SDS011;7105;43.616;1.434;2023-07-13T07:22:50;5.38;;;1.63;;
14060;SDS011;7105;43.616;1.434;2023-07-13T07:25:16;6.95;;;2.05;;
14060;SDS011;7105;43.616;1.434;2023-07-13T07:27:41;5.18;;;1.50;;
14060;SDS011;7105;43.616;1.434;2023-07-13T07:30:07;3.50;;;1.20;;
14060;SDS011;7105;43.616;1.434;2023-07-13T07:32:33;6.38;;;1.45;;
14060;SDS011;7105;43.616;1.434;2023-07-13T07:34:59;3.10;;;1.27;;
14060;SDS011;7105;43.616;1.434;2023-07-13T07:37:24;4.75;;;1.95;;
14060;SDS011;7105;43.616;1.434;2023-07-13T07:39:52;2.75;;;1.48;;
14060;SDS011;7105;43.616;1.434;2023-07-13T07:42:18;3.53;;;1.27;;
14060;SDS011;7105;43.616;1.434;2023-07-13T07:44:44;2.60;;;1.27;;
14060;SDS011;7105;43.616;1.434;2023-07-13T07:47:09;3.13;;;1.30;;
14060;SDS011;7105;43.616;1.434;2023-07-13T07:49:36;3.42;;;1.50;;
14060;SDS011;7105;43.616;1.434;2023-07-13T07:52:02;5.53;;;1.58;;
14060;SDS011;7105;43.616;1.434;2023-07-13T07:54:28;2.80;;;1.30;;
14060;SDS011;7105;43.616;1.434;2023-07-13T07:56:53;3.50;;;1.40;;
14060;SDS011;7105;43.616;1.434;2023-07-13T07:59:19;6.70;;;1.88;;
14060;SDS011;7105;43.616;1.434;2023-07-13T08:01:45;2.33;;;1.02;;
14060;SDS011;7105;43.616;1.434;2023-07-13T08:04:12;3.33;;;1.40;;
14060;SDS011;7105;43.616;1.434;2023-07-13T08:06:38;2.00;;;1.05;;
14060;SDS011;7105;43.616;1.434;2023-07-13T08:09:04;4.18;;;1.50;;
14060;SDS011;7105;43.616;1.434;2023-07-13T08:11:29;3.75;;;1.10;;
14060;SDS011;7105;43.616;1.434;2023-07-13T08:13:55;2.15;;;1.42;;
14060;SDS011;7105;43.616;1.434;2023-07-13T08:16:21;2.88;;;0.98;;
14060;SDS011;7105;43.616;1.434;2023-07-13T08:18:48;2.38;;;1.05;;
14060;SDS011;7105;43.616;1.434;2023-07-13T08:21:14;1.90;;;0.80;;
14060;SDS011;7105;43.616;1.434;2023-07-13T08:23:39;3.42;;;0.93;;
14060;SDS011;7105;43.616;1.434;2023-07-13T08:26:05;2.35;;;0.77;;
14060;SDS011;7105;43.616;1.434;2023-07-13T08:28:31;3.83;;;1.30;;
14060;SDS011;7105;43.616;1.434;2023-07-13T08:31:05;2.20;;;0.98;;
14060;SDS011;7105;43.616;1.434;2023-07-13T08:33:35;3.00;;;1.17;;
14060;SDS011;7105;43.616;1.434;2023-07-13T08:36:01;4.75;;;1.10;;
14060;SDS011;7105;43.616;1.434;2023-07-13T08:38:27;2.95;;;1.23;;
14060;SDS011;7105;43.616;1.434;2023-07-13T08:40:55;3.38;;;1.02;;
14060;SDS011;7105;43.616;1.434;2023-07-13T08:43:34;2.10;;;0.95;;
14060;SDS011;7105;43.616;1.434;2023-07-13T08:54:01;4.45;;;0.85;;
14060;SDS011;7105;43.616;1.434;2023-07-13T08:56:30;3.17;;;1.10;;
14060;SDS011;7105;43.616;1.434;2023-07-13T08:59:13;1.58;;;0.90;;
14060;SDS011;7105;43.616;1.434;2023-07-13T09:04:19;3.65;;;1.05;;
14060;SDS011;7105;43.616;1.434;2023-07-13T09:12:40;1.75;;;0.70;;
14060;SDS011;7105;43.616;1.434;2023-07-13T09:15:34;4.35;;;1.10;;
14060;SDS011;7105;43.616;1.434;2023-07-13T09:18:19;4.00;;;0.90;;
14060;SDS011;7105;43.616;1.434;2023-07-13T09:23:37;2.75;;;1.10;;
14060;SDS011;7105;43.616;1.434;2023-07-13T09:26:04;2.85;;;1.02;;
14060;SDS011;7105;43.616;1.434;2023-07-13T09:28:46;4.07;;;0.95;;
14060;SDS011;7105;43.616;1.434;2023-07-13T09:31:16;8.63;;;1.52;;
14060;SDS011;7105;43.616;1.434;2023-07-13T09:33:51;2.25;;;1.00;;
14060;SDS011;7105;43.616;1.434;2023-07-13T09:38:45;3.22;;;1.20;;
14060;SDS011;7105;43.616;1.434;2023-07-13T09:46:34;2.95;;;1.30;;
14060;SDS011;7105;43.616;1.434;2023-07-13T09:49:00;2.13;;;1.10;;
14060;SDS011;7105;43.616;1.434;2023-07-13T09:51:26;1.42;;;0.90;;
14060;SDS011;7105;43.616;1.434;2023-07-13T09:53:52;3.95;;;1.00;;
14060;SDS011;7105;43.616;1.434;2023-07-13T09:56:22;2.45;;;1.10;;
14060;SDS011;7105;43.616;1.434;2023-07-13T09:58:51;1.95;;;1.05;;
14060;SDS011;7105;43.616;1.434;2023-07-13T10:01:30;5.82;;;1.15;;
14060;SDS011;7105;43.616;1.434;2023-07-13T10:03:58;3.45;;;1.20;;
14060;SDS011;7105;43.616;1.434;2023-07-13T10:06:24;3.95;;;1.33;;
14060;SDS011;7105;43.616;1.434;2023-07-13T10:08:51;2.58;;;0.90;;
14060;SDS011;7105;43.616;1.434;2023-07-13T10:11:19;2.00;;;1.10;;
14060;SDS011;7105;43.616;1.434;2023-07-13T10:13:54;2.72;;;1.40;;
14060;SDS011;7105;43.616;1.434;2023-07-13T10:16:24;2.67;;;1.15;;
14060;SDS011;7105;43.616;1.434;2023-07-13T10:18:53;4.10;;;1.27;;
14060;SDS011;7105;43.616;1.434;2023-07-13T10:21:23;2.90;;;1.20;;
14060;SDS011;7105;43.616;1.434;2023-07-13T10:24:17;4.20;;;1.15;;
14060;SDS011;7105;43.616;1.434;2023-07-13T10:26:46;3.25;;;1.40;;
14060;SDS011;7105;43.616;1.434;2023-07-13T10:29:25;4.72;;;1.52;;
14060;SDS011;7105;43.616;1.434;2023-07-13T10:31:53;5.57;;;1.33;;
14060;SDS011;7105;43.616;1.434;2023-07-13T10:34:19;1.80;;;1.10;;
14060;SDS011;7105;43.616;1.434;2023-07-13T10:36:46;2.55;;;1.13;;
14060;SDS011;7105;43.616;1.434;2023-07-13T10:39:14;4.45;;;1.20;;
14060;SDS011;7105;43.616;1.434;2023-07-13T10:41:40;3.92;;;1.60;;
14060;SDS011;7105;43.616;1.434;2023-07-13T10:44:15;3.28;;;1.50;;
14060;SDS011;7105;43.616;1.434;2023-07-13T10:46:50;3.78;;;1.10;;
14060;SDS011;7105;43.616;1.434;2023-07-13T10:49:17;2.75;;;1.10;;
14060;SDS011;7105;43.616;1.434;2023-07-13T10:51:44;2.75;;;1.45;;
14060;SDS011;7105;43.616;1.434;2023-07-13T10:54:20;4.45;;;1.42;;
14060;SDS011;7105;43.616;1.434;2023-07-13T10:57:33;2.92;;;1.48;;
14060;SDS011;7105;43.616;1.434;2023-07-13T11:02:27;4.60;;;1.30;;
14060;SDS011;7105;43.616;1.434;2023-07-13T11:04:54;4.30;;;1.20;;
14060;SDS011;7105;43.616;1.434;2023-07-13T11:07:23;2.60;;;1.30;;
14060;SDS011;7105;43.616;1.434;2023-07-13T11:09:53;3.42;;;1.23;;
14060;SDS011;7105;43.616;1.434;2023-07-13T11:22:45;1.88;;;1.10;;
14060;SDS011;7105;43.616;1.434;2023-07-13T11:25:26;3.28;;;1.08;;
14060;SDS011;7105;43.616;1.434;2023-07-13T11:30:39;2.72;;;1.40;;
14060;SDS011;7105;43.616;1.434;2023-07-13T11:38:42;2.95;;;1.17;;
14060;SDS011;7105;43.616;1.434;2023-07-13T11:41:19;2.97;;;1.33;;
14060;SDS011;7105;43.616;1.434;2023-07-13T11:43:50;3.03;;;1.00;;
14060;SDS011;7105;43.616;1.434;2023-07-13T11:46:22;4.57;;;1.23;;
14060;SDS011;7105;43.616;1.434;2023-07-13T11:48:50;2.78;;;1.00;;
14060;SDS011;7105;43.616;1.434;2023-07-13T11:51:35;4.00;;;1.38;;
14060;SDS011;7105;43.616;1.434;2023-07-13T11:54:15;1.85;;;1.35;;
14060;SDS011;7105;43.616;1.434;2023-07-13T11:56:51;4.00;;;1.42;;
14060;SDS011;7105;43.616;1.434;2023-07-13T11:59:18;3.08;;;1.30;;
14060;SDS011;7105;43.616;1.434;2023-07-13T12:01:48;2.20;;;1.17;;
14060;SDS011;7105;43.616;1.434;2023-07-13T12:04:27;3.15;;;1.20;;
14060;SDS011;7105;43.616;1.434;2023-07-13T12:07:17;3.65;;;1.30;;
14060;SDS011;7105;43.616;1.434;2023-07-13T12:09:43;3.45;;;1.50;;
14060;SDS011;7105;43.616;1.434;2023-07-13T12:12:16;3.60;;;1.30;;
14060;SDS011;7105;43.616;1.434;2023-07-13T12:14:44;2.50;;;1.20;;
14060;SDS011;7105;43.616;1.434;2023-07-13T12:17:19;2.25;;;1.20;;
14060;SDS011;7105;43.616;1.434;2023-07-13T12:19:47;2.65;;;1.40;;
14060;SDS011;7105;43.616;1.434;2023-07-13T12:22:14;1.75;;;1.10;;
14060;SDS011;7105;43.616;1.434;2023-07-13T12:24:44;3.40;;;1.45;;
14060;SDS011;7105;43.616;1.434;2023-07-13T12:27:24;4.32;;;2.15;;
14060;SDS011;7105;43.616;1.434;2023-07-13T12:32:30;2.65;;;1.05;;
14060;SDS011;7105;43.616;1.434;2023-07-13T12:35:01;2.58;;;1.35;;
14060;SDS011;7105;43.616;1.434;2023-07-13T12:37:41;2.65;;;1.10;;
14060;SDS011;7105;43.616;1.434;2023-07-13T12:40:15;2.90;;;1.10;;
14060;SDS011;7105;43.616;1.434;2023-07-13T12:42:47;4.90;;;1.27;;
14060;SDS011;7105;43.616;1.434;2023-07-13T12:45:22;2.55;;;1.55;;
14060;SDS011;7105;43.616;1.434;2023-07-13T12:47:53;2.40;;;1.33;;
14060;SDS011;7105;43.616;1.434;2023-07-13T12:50:30;5.25;;;1.40;;
14060;SDS011;7105;43.616;1.434;2023-07-13T12:53:03;2.55;;;1.13;;
14060;SDS011;7105;43.616;1.434;2023-07-13T12:55:32;2.95;;;0.98;;
14060;SDS011;7105;43.616;1.434;2023-07-13T12:58:16;3.13;;;1.20;;
14060;SDS011;7105;43.616;1.434;2023-07-13T13:00:54;1.92;;;1.10;;
14060;SDS011;7105;43.616;1.434;2023-07-13T13:03:24;5.57;;;1.30;;
14060;SDS011;7105;43.616;1.434;2023-07-13T13:05:59;3.35;;;1.48;;
14060;SDS011;7105;43.616;1.434;2023-07-13T13:08:33;3.88;;;1.10;;
14060;SDS011;7105;43.616;1.434;2023-07-13T13:11:03;4.38;;;1.55;;
14060;SDS011;7105;43.616;1.434;2023-07-13T13:13:29;4.03;;;1.17;;
14060;SDS011;7105;43.616;1.434;2023-07-13T13:15:55;4.68;;;1.05;;
14060;SDS011;7105;43.616;1.434;2023-07-13T13:18:22;2.75;;;1.60;;
14060;SDS011;7105;43.616;1.434;2023-07-13T13:20:49;1.88;;;1.10;;
14060;SDS011;7105;43.616;1.434;2023-07-13T13:23:16;2.13;;;1.25;;
14060;SDS011;7105;43.616;1.434;2023-07-13T13:25:44;1.92;;;1.02;;
14060;SDS011;7105;43.616;1.434;2023-07-13T13:28:18;2.85;;;1.27;;
14060;SDS011;7105;43.616;1.434;2023-07-13T13:30:47;2.95;;;1.55;;
14060;SDS011;7105;43.616;1.434;2023-07-13T13:33:15;2.05;;;1.10;;
14060;SDS011;7105;43.616;1.434;2023-07-13T13:35:43;1.17;;;1.08;;
14060;SDS011;7105;43.616;1.434;2023-07-13T13:38:10;3.05;;;1.10;;
14060;SDS011;7105;43.616;1.434;2023-07-13T13:40:43;3.33;;;1.30;;
14060;SDS011;7105;43.616;1.434;2023-07-13T13:43:17;2.20;;;1.00;;
14060;SDS011;7105;43.616;1.434;2023-07-13T13:45:51;3.33;;;1.50;;
14060;SDS011;7105;43.616;1.434;2023-07-13T13:48:18;2.42;;;1.00;;
14060;SDS011;7105;43.616;1.434;2023-07-13T13:50:47;4.38;;;1.30;;
14060;SDS011;7105;43.616;1.434;2023-07-13T13:53:13;3.33;;;1.33;;
14060;SDS011;7105;43.616;1.434;2023-07-13T13:55:40;2.35;;;1.10;;
14060;SDS011;7105;43.616;1.434;2023-07-13T13:58:07;3.78;;;1.30;;
14060;SDS011;7105;43.616;1.434;2023-07-13T14:00:36;2.00;;;1.00;;
14060;SDS011;7105;43.616;1.434;2023-07-13T14:03:03;2.75;;;0.90;;
14060;SDS011;7105;43.616;1.434;2023-07-13T14:05:29;2.83;;;1.00;;
14060;SDS011;7105;43.616;1.434;2023-07-13T14:07:55;4.00;;;1.10;;
14060;SDS011;7105;43.616;1.434;2023-07-13T14:10:22;5.75;;;1.35;;
14060;SDS011;7105;43.616;1.434;2023-07-13T14:12:51;3.08;;;1.45;;
14060;SDS011;7105;43.616;1.434;2023-07-13T14:15:22;2.75;;;1.30;;
14060;SDS011;7105;43.616;1.434;2023-07-13T14:17:49;4.78;;;0.90;;
14060;SDS011;7105;43.616;1.434;2023-07-13T14:20:16;1.73;;;0.98;;
14060;SDS011;7105;43.616;1.434;2023-07-13T14:22:43;2.00;;;1.10;;
14060;SDS011;7105;43.616;1.434;2023-07-13T14:25:13;2.47;;;1.10;;
14060;SDS011;7105;43.616;1.434;2023-07-13T14:27:40;2.80;;;1.40;;
14060;SDS011;7105;43.616;1.434;2023-07-13T14:30:17;2.88;;;1.27;;
14060;SDS011;7105;43.616;1.434;2023-07-13T14:32:45;1.77;;;1.10;;
14060;SDS011;7105;43.616;1.434;2023-07-13T14:35:11;4.03;;;1.20;;
14060;SDS011;7105;43.616;1.434;2023-07-13T14:37:41;5.45;;;1.40;;
14060;SDS011;7105;43.616;1.434;2023-07-13T14:40:15;3.15;;;1.48;;
14060;SDS011;7105;43.616;1.434;2023-07-13T14:42:42;3.03;;;1.10;;
14060;SDS011;7105;43.616;1.434;2023-07-13T14:45:15;2.25;;;1.02;;
14060;SDS011;7105;43.616;1.434;2023-07-13T14:47:43;1.75;;;1.20;;
14060;SDS011;7105;43.616;1.434;2023-07-13T14:50:16;1.75;;;1.10;;
14060;SDS011;7105;43.616;1.434;2023-07-13T14:52:45;3.40;;;1.10;;
14060;SDS011;7105;43.616;1.434;2023-07-13T14:55:13;3.58;;;1.23;;
14060;SDS011;7105;43.616;1.434;2023-07-13T14:57:40;3.85;;;1.27;;
14060;SDS011;7105;43.616;1.434;2023-07-13T15:00:16;2.13;;;1.10;;
14060;SDS011;7105;43.616;1.434;2023-07-13T15:02:45;2.97;;;1.38;;
14060;SDS011;7105;43.616;1.434;2023-07-13T15:05:24;2.35;;;1.30;;
14060;SDS011;7105;43.616;1.434;2023-07-13T15:07:52;2.15;;;1.10;;
14060;SDS011;7105;43.616;1.434;2023-07-13T15:12:58;5.50;;;1.25;;
14060;SDS011;7105;43.616;1.434;2023-07-13T15:15:29;1.70;;;1.13;;
14060;SDS011;7105;43.616;1.434;2023-07-13T15:17:58;4.05;;;1.10;;
14060;SDS011;7105;43.616;1.434;2023-07-13T15:20:29;1.38;;;0.90;;
14060;SDS011;7105;43.616;1.434;2023-07-13T15:22:57;2.33;;;1.02;;
14060;SDS011;7105;43.616;1.434;2023-07-13T15:25:24;1.65;;;1.10;;
14060;SDS011;7105;43.616;1.434;2023-07-13T15:27:53;4.07;;;1.38;;
14060;SDS011;7105;43.616;1.434;2023-07-13T15:30:21;2.17;;;1.02;;
14060;SDS011;7105;43.616;1.434;2023-07-13T15:32:48;2.67;;;1.20;;
14060;SDS011;7105;43.616;1.434;2023-07-13T15:35:15;3.05;;;1.23;;
14060;SDS011;7105;43.616;1.434;2023-07-13T15:37:42;2.33;;;1.17;;
14060;SDS011;7105;43.616;1.434;2023-07-13T15:40:09;3.30;;;1.10;;
14060;SDS011;7105;43.616;1.434;2023-07-13T15:42:36;2.95;;;1.20;;
14060;SDS011;7105;43.616;1.434;2023-07-13T15:45:04;3.03;;;1.20;;
14060;SDS011;7105;43.616;1.434;2023-07-13T15:47:34;2.83;;;1.00;;
14060;SDS011;7105;43.616;1.434;2023-07-13T15:50:00;2.70;;;1.30;;
14060;SDS011;7105;43.616;1.434;2023-07-13T15:52:26;2.92;;;1.33;;
14060;SDS011;7105;43.616;1.434;2023-07-13T15:54:53;2.05;;;1.15;;
14060;SDS011;7105;43.616;1.434;2023-07-13T15:57:20;2.88;;;1.15;;
14060;SDS011;7105;43.616;1.434;2023-07-13T15:59:46;2.80;;;1.27;;
14060;SDS011;7105;43.616;1.434;2023-07-13T16:02:13;2.25;;;1.10;;